createdAt,value
2019-01-16T00:00:50.142Z,9.43
2019-01-16T00:02:06.520Z,9.43
2019-01-16T00:03:40.074Z,9.43
2019-01-16T00:05:00.902Z,9.42
2019-01-16T00:06:40.199Z,9.40
2019-01-16T00:07:58.163Z,9.40
2019-01-16T00:09:33.224Z,9.38
2019-01-16T00:10:48.731Z,9.38
2019-01-16T00:12:07.932Z,9.37
2019-01-16T00:13:23.206Z,9.36
2019-01-16T00:15:02.312Z,9.37
2019-01-16T00:16:14.256Z,9.38
2019-01-16T00:17:38.340Z,9.38
2019-01-16T00:18:56.656Z,9.35
2019-01-16T00:20:15.671Z,9.35
2019-01-16T00:21:42.757Z,9.35
2019-01-16T00:23:22.036Z,9.35
2019-01-16T00:24:45.641Z,9.36
2019-01-16T00:26:07.739Z,9.38
2019-01-16T00:27:50.462Z,9.39
2019-01-16T00:29:13.583Z,9.40
2019-01-16T00:30:36.813Z,9.43
2019-01-16T00:32:00.128Z,9.44
2019-01-16T00:33:33.975Z,9.44
2019-01-16T00:34:48.925Z,9.43
2019-01-16T00:36:05.838Z,9.40
2019-01-16T00:37:33.196Z,9.39
2019-01-16T00:38:56.280Z,9.40
2019-01-16T00:40:24.483Z,9.38
2019-01-16T00:41:41.737Z,9.37
2019-01-16T00:42:55.992Z,9.38
2019-01-16T00:44:22.863Z,9.37
2019-01-16T00:45:44.120Z,9.36
2019-01-16T00:47:01.587Z,9.35
2019-01-16T00:48:15.068Z,9.33
2019-01-16T00:49:42.021Z,9.32
2019-01-16T00:50:58.379Z,9.34
2019-01-16T00:52:19.539Z,9.35
2019-01-16T00:53:58.732Z,9.35
2019-01-16T00:55:25.896Z,9.35
2019-01-16T00:56:43.812Z,9.33
2019-01-16T00:58:13.602Z,9.31
2019-01-16T00:59:36.286Z,9.33
2019-01-16T01:01:01.556Z,9.32
2019-01-16T01:02:44.958Z,9.28
2019-01-16T01:04:07.765Z,9.25
2019-01-16T01:05:30.910Z,9.24
2019-01-16T01:06:52.344Z,9.23
2019-01-16T01:08:15.025Z,9.25
2019-01-16T01:09:36.281Z,9.28
2019-01-16T01:11:09.496Z,9.27
2019-01-16T01:12:41.318Z,9.27
2019-01-16T01:14:04.391Z,9.29
2019-01-16T01:15:26.160Z,9.31
2019-01-16T01:16:53.320Z,9.33
2019-01-16T01:18:32.289Z,9.32
2019-01-16T01:19:55.901Z,9.32
2019-01-16T01:21:17.151Z,9.28
2019-01-16T01:22:41.505Z,9.23
2019-01-16T01:24:10.615Z,9.18
2019-01-16T01:25:37.940Z,9.17
2019-01-16T01:26:54.866Z,9.19
2019-01-16T01:28:19.235Z,9.23
2019-01-16T01:29:46.836Z,9.25
2019-01-16T01:31:03.438Z,9.26
2019-01-16T01:32:43.018Z,9.29
2019-01-16T01:34:16.241Z,9.26
2019-01-16T01:35:38.292Z,9.22
2019-01-16T01:37:01.757Z,9.20
2019-01-16T01:38:33.498Z,9.20
2019-01-16T01:40:03.992Z,9.21
2019-01-16T01:41:31.138Z,9.18
2019-01-16T01:42:49.949Z,9.22
2019-01-16T01:44:10.727Z,9.22
2019-01-16T01:45:40.450Z,9.23
2019-01-16T01:47:00.119Z,9.26
2019-01-16T01:48:26.994Z,9.28
2019-01-16T01:49:48.605Z,9.29
2019-01-16T01:51:12.249Z,9.28
2019-01-16T01:52:45.734Z,9.29
2019-01-16T01:54:13.145Z,9.29
2019-01-16T01:55:43.073Z,9.27
2019-01-16T01:57:03.582Z,9.24
2019-01-16T01:58:23.485Z,9.20
2019-01-16T01:59:46.207Z,9.15
2019-01-16T02:01:07.881Z,9.09
2019-01-16T02:02:35.011Z,9.07
2019-01-16T02:03:59.058Z,9.03
2019-01-16T02:05:16.503Z,9.02
2019-01-16T02:06:39.268Z,8.99
2019-01-16T02:08:01.973Z,8.98
2019-01-16T02:09:22.962Z,8.96
2019-01-16T02:10:46.835Z,8.96
2019-01-16T02:12:18.985Z,8.99
2019-01-16T02:13:43.894Z,9.04
2019-01-16T02:15:10.293Z,9.08
2019-01-16T02:16:43.574Z,9.12
2019-01-16T02:18:16.757Z,9.16
2019-01-16T02:19:47.166Z,9.17
2019-01-16T02:21:11.375Z,9.21
2019-01-16T02:22:32.181Z,9.23
2019-01-16T02:24:11.205Z,9.25
2019-01-16T02:25:34.479Z,9.26
2019-01-16T02:27:01.868Z,9.26
2019-01-16T02:28:29.805Z,9.26
2019-01-16T02:29:59.503Z,9.29
2019-01-16T02:31:17.775Z,9.32
2019-01-16T02:32:34.414Z,9.31
2019-01-16T02:34:08.963Z,9.29
2019-01-16T02:35:33.006Z,9.32
2019-01-16T02:36:54.136Z,9.34
2019-01-16T02:38:30.428Z,9.33
2019-01-16T02:39:57.402Z,9.32
2019-01-16T02:41:09.851Z,9.31
2019-01-16T02:42:28.815Z,9.32
2019-01-16T02:44:01.778Z,9.32
2019-01-16T02:45:22.111Z,9.33
2019-01-16T02:46:45.213Z,9.34
2019-01-16T02:48:08.267Z,9.34
2019-01-16T02:49:40.055Z,9.34
2019-01-16T02:51:03.658Z,9.32
2019-01-16T02:52:28.046Z,9.32
2019-01-16T02:53:52.555Z,9.31
2019-01-16T02:55:15.702Z,9.29
2019-01-16T02:56:38.708Z,9.30
2019-01-16T02:57:55.688Z,9.28
2019-01-16T02:59:19.739Z,9.23
2019-01-16T03:00:33.089Z,9.24
2019-01-16T03:02:00.540Z,9.26
2019-01-16T03:03:21.787Z,9.28
2019-01-16T03:04:55.258Z,9.31
2019-01-16T03:06:19.283Z,9.30
2019-01-16T03:07:35.732Z,9.32
2019-01-16T03:08:58.669Z,9.31
2019-01-16T03:10:22.366Z,9.29
2019-01-16T03:11:46.136Z,9.28
2019-01-16T03:13:10.617Z,9.23
2019-01-16T03:14:32.017Z,9.21
2019-01-16T03:15:47.442Z,9.20
2019-01-16T03:17:10.207Z,9.22
2019-01-16T03:18:22.570Z,9.21
2019-01-16T03:19:41.092Z,9.23
2019-01-16T03:21:04.212Z,9.24
2019-01-16T03:22:31.629Z,9.22
2019-01-16T03:23:54.907Z,9.22
2019-01-16T03:25:10.136Z,9.23
2019-01-16T03:26:27.437Z,9.25
2019-01-16T03:27:54.788Z,9.26
2019-01-16T03:29:10.573Z,9.23
2019-01-16T03:30:23.931Z,9.21
2019-01-16T03:32:04.169Z,9.23
2019-01-16T03:33:30.861Z,9.24
2019-01-16T03:34:45.456Z,9.25
2019-01-16T03:36:08.212Z,9.26
2019-01-16T03:37:47.740Z,9.23
2019-01-16T03:39:12.123Z,9.20
2019-01-16T03:40:29.216Z,9.18
2019-01-16T03:41:48.437Z,9.15
2019-01-16T03:43:31.425Z,9.16
2019-01-16T03:44:50.196Z,9.17
2019-01-16T03:46:11.127Z,9.20
2019-01-16T03:47:38.602Z,9.20
2019-01-16T03:49:13.612Z,9.18
2019-01-16T03:50:29.603Z,9.16
2019-01-16T03:51:56.660Z,9.13
2019-01-16T03:53:19.666Z,9.12
2019-01-16T03:54:43.987Z,9.13
2019-01-16T03:56:01.878Z,9.09
2019-01-16T03:57:26.302Z,9.08
2019-01-16T03:58:50.643Z,9.03
2019-01-16T04:00:11.962Z,8.98
2019-01-16T04:01:39.500Z,8.95
2019-01-16T04:03:13.343Z,8.92
2019-01-16T04:04:37.461Z,8.89
2019-01-16T04:05:54.216Z,8.87
2019-01-16T04:07:17.369Z,8.87
2019-01-16T04:08:41.491Z,8.86
2019-01-16T04:10:24.261Z,8.86
2019-01-16T04:11:46.948Z,8.86
2019-01-16T04:13:09.627Z,8.84
2019-01-16T04:14:34.461Z,8.84
2019-01-16T04:16:06.284Z,8.85
2019-01-16T04:17:45.833Z,8.85
2019-01-16T04:19:08.213Z,8.85
2019-01-16T04:20:33.617Z,8.87
2019-01-16T04:21:58.569Z,8.91
2019-01-16T04:23:17.422Z,8.95
2019-01-16T04:24:39.729Z,8.97
2019-01-16T04:26:10.298Z,8.97
2019-01-16T04:27:36.013Z,8.98
2019-01-16T04:29:00.010Z,9.01
2019-01-16T04:30:31.551Z,9.03
2019-01-16T04:31:47.770Z,9.05
2019-01-16T04:33:23.877Z,9.06
2019-01-16T04:34:57.933Z,9.10
2019-01-16T04:36:14.885Z,9.09
2019-01-16T04:37:54.347Z,9.06
2019-01-16T04:39:18.302Z,9.05
2019-01-16T04:40:46.242Z,9.04
2019-01-16T04:42:17.298Z,9.02
2019-01-16T04:43:50.706Z,9.01
2019-01-16T04:45:27.733Z,9.02
2019-01-16T04:46:43.279Z,9.04
2019-01-16T04:48:19.816Z,9.07
2019-01-16T04:49:42.639Z,9.07
2019-01-16T04:50:59.251Z,9.06
2019-01-16T04:52:29.618Z,9.04
2019-01-16T04:54:01.555Z,9.02
2019-01-16T04:55:37.545Z,9.01
2019-01-16T04:57:04.857Z,9.00
2019-01-16T04:58:25.089Z,9.01
2019-01-16T04:59:38.313Z,8.99
2019-01-16T05:00:54.372Z,9.01
2019-01-16T05:02:18.481Z,9.01
2019-01-16T05:03:35.089Z,9.02
2019-01-16T05:04:51.871Z,9.02
2019-01-16T05:06:25.977Z,9.04
2019-01-16T05:07:53.574Z,9.04
2019-01-16T05:09:13.605Z,9.07
2019-01-16T05:10:27.136Z,9.10
2019-01-16T05:11:50.119Z,9.12
2019-01-16T05:13:14.218Z,9.13
2019-01-16T05:14:30.752Z,9.12
2019-01-16T05:15:47.951Z,9.10
2019-01-16T05:17:14.776Z,9.08
2019-01-16T05:18:34.136Z,9.07
2019-01-16T05:19:52.331Z,9.07
2019-01-16T05:21:22.938Z,9.05
2019-01-16T05:22:53.040Z,9.07
2019-01-16T05:24:32.532Z,9.09
2019-01-16T05:26:11.976Z,9.11
2019-01-16T05:27:51.052Z,9.10
2019-01-16T05:29:15.715Z,9.10
2019-01-16T05:30:41.800Z,9.09
2019-01-16T05:31:54.607Z,9.09
2019-01-16T05:33:09.597Z,9.11
2019-01-16T05:34:24.737Z,9.12
2019-01-16T05:35:55.149Z,9.13
2019-01-16T05:37:20.191Z,9.15
2019-01-16T05:38:39.750Z,9.18
2019-01-16T05:39:57.305Z,9.19
2019-01-16T05:41:24.546Z,9.19
2019-01-16T05:42:49.051Z,9.22
2019-01-16T05:44:13.027Z,9.22
2019-01-16T05:45:34.124Z,9.20
2019-01-16T05:46:48.464Z,9.21
2019-01-16T05:48:08.344Z,9.22
2019-01-16T05:49:46.590Z,9.22
2019-01-16T05:51:05.736Z,9.25
2019-01-16T05:52:20.652Z,9.28
2019-01-16T05:53:36.841Z,9.26
2019-01-16T05:54:59.755Z,9.28
2019-01-16T05:56:28.113Z,9.26
2019-01-16T05:57:50.881Z,9.28
2019-01-16T05:59:15.069Z,9.28
2019-01-16T06:00:33.289Z,9.28
2019-01-16T06:01:50.721Z,9.29
2019-01-16T06:03:30.088Z,9.29
2019-01-16T06:04:45.237Z,9.31
2019-01-16T06:06:07.952Z,9.32
2019-01-16T06:07:47.544Z,9.32
2019-01-16T06:09:11.907Z,9.32
2019-01-16T06:10:28.185Z,9.30
2019-01-16T06:11:53.023Z,9.27
2019-01-16T06:13:19.836Z,9.26
2019-01-16T06:14:43.016Z,9.26
2019-01-16T06:15:57.582Z,9.30
2019-01-16T06:17:15.443Z,9.31
2019-01-16T06:18:42.176Z,9.29
2019-01-16T06:20:16.875Z,9.29
2019-01-16T06:21:39.702Z,9.29
2019-01-16T06:22:59.200Z,9.30
2019-01-16T06:24:23.838Z,9.32
2019-01-16T06:25:47.030Z,9.31
2019-01-16T06:27:29.911Z,9.28
2019-01-16T06:28:54.531Z,9.28
2019-01-16T06:30:21.487Z,9.26
2019-01-16T06:31:47.697Z,9.27
2019-01-16T06:33:07.159Z,9.28
2019-01-16T06:34:34.989Z,9.30
2019-01-16T06:35:59.136Z,9.34
2019-01-16T06:37:22.535Z,9.35
2019-01-16T06:38:46.741Z,9.35
2019-01-16T06:40:27.127Z,9.34
2019-01-16T06:41:50.333Z,9.35
2019-01-16T06:43:04.316Z,9.33
2019-01-16T06:44:34.824Z,9.33
2019-01-16T06:46:08.209Z,9.34
2019-01-16T06:47:24.330Z,9.34
2019-01-16T06:48:47.272Z,9.30
2019-01-16T06:50:16.478Z,9.27
2019-01-16T06:51:39.476Z,9.26
2019-01-16T06:53:05.065Z,9.27
2019-01-16T06:54:27.752Z,9.27
2019-01-16T06:55:54.680Z,9.29
2019-01-16T06:57:18.998Z,9.30
2019-01-16T06:58:41.978Z,9.29
2019-01-16T07:00:18.069Z,9.31
2019-01-16T07:01:52.999Z,9.32
2019-01-16T07:03:23.771Z,9.30
2019-01-16T07:04:39.061Z,9.30
2019-01-16T07:06:03.719Z,9.31
2019-01-16T07:07:33.639Z,9.32
2019-01-16T07:08:53.994Z,9.32
2019-01-16T07:10:09.531Z,9.31
2019-01-16T07:11:34.350Z,9.31
2019-01-16T07:12:53.884Z,9.29
2019-01-16T07:14:20.240Z,9.26
2019-01-16T07:15:59.822Z,9.24
2019-01-16T07:17:23.083Z,9.21
2019-01-16T07:18:46.267Z,9.17
2019-01-16T07:20:23.946Z,9.14
2019-01-16T07:21:45.483Z,9.13
2019-01-16T07:22:59.692Z,9.14
2019-01-16T07:24:23.357Z,9.13
2019-01-16T07:25:54.707Z,9.15
2019-01-16T07:27:12.587Z,9.13
2019-01-16T07:28:33.061Z,9.14
2019-01-16T07:29:55.787Z,9.14
2019-01-16T07:31:22.759Z,9.16
2019-01-16T07:32:52.873Z,9.15
2019-01-16T07:34:06.898Z,9.11
2019-01-16T07:35:31.420Z,9.11
2019-01-16T07:36:55.095Z,9.13
2019-01-16T07:38:31.849Z,9.16
2019-01-16T07:39:47.586Z,9.18
2019-01-16T07:41:01.670Z,9.16
2019-01-16T07:42:25.545Z,9.15
2019-01-16T07:43:37.835Z,9.16
2019-01-16T07:45:00.904Z,9.15
2019-01-16T07:46:34.356Z,9.14
2019-01-16T07:48:02.105Z,9.13
2019-01-16T07:49:23.527Z,9.15
2019-01-16T07:50:43.289Z,9.16
2019-01-16T07:52:14.868Z,9.17
2019-01-16T07:53:42.188Z,9.16
2019-01-16T07:55:05.160Z,9.17
2019-01-16T07:56:18.807Z,9.19
2019-01-16T07:57:45.854Z,9.17
2019-01-16T07:59:25.808Z,9.20
2019-01-16T08:00:51.058Z,9.19
2019-01-16T08:02:18.366Z,9.16
2019-01-16T08:03:41.219Z,9.18
2019-01-16T08:05:14.451Z,9.16
2019-01-16T08:06:32.340Z,9.15
2019-01-16T08:07:54.545Z,9.13
2019-01-16T08:09:24.969Z,9.13
2019-01-16T08:10:46.215Z,9.15
2019-01-16T08:12:28.450Z,9.16
2019-01-16T08:13:59.121Z,9.17
2019-01-16T08:15:17.777Z,9.19
2019-01-16T08:16:42.065Z,9.17
2019-01-16T08:17:53.819Z,9.19
2019-01-16T08:19:24.749Z,9.21
2019-01-16T08:20:51.718Z,9.22
2019-01-16T08:22:06.476Z,9.26
2019-01-16T08:23:30.570Z,9.29
2019-01-16T08:25:01.165Z,9.30
2019-01-16T08:26:34.446Z,9.29
2019-01-16T08:27:57.857Z,9.27
2019-01-16T08:29:30.970Z,9.26
2019-01-16T08:30:53.950Z,9.27
2019-01-16T08:32:36.227Z,9.26
2019-01-16T08:34:06.651Z,9.25
2019-01-16T08:35:27.553Z,9.24
2019-01-16T08:37:00.971Z,9.22
2019-01-16T08:38:30.940Z,9.26
2019-01-16T08:39:46.963Z,9.27
2019-01-16T08:41:11.358Z,9.30
2019-01-16T08:42:44.575Z,9.30
2019-01-16T08:44:13.666Z,9.34
2019-01-16T08:45:25.794Z,9.37
2019-01-16T08:47:05.654Z,9.37
2019-01-16T08:48:36.446Z,9.37
2019-01-16T08:50:11.727Z,9.38
2019-01-16T08:51:42.227Z,9.39
2019-01-16T08:53:09.497Z,9.38
2019-01-16T08:54:32.475Z,9.38
2019-01-16T08:55:53.459Z,9.38
2019-01-16T08:57:20.433Z,9.38
2019-01-16T08:58:56.794Z,9.40
2019-01-16T09:00:23.800Z,9.42
2019-01-16T09:02:00.277Z,9.43
2019-01-16T09:03:23.234Z,9.47
2019-01-16T09:04:55.562Z,9.51
2019-01-16T09:06:11.341Z,9.53
2019-01-16T09:07:45.600Z,9.54
2019-01-16T09:09:21.699Z,9.57
2019-01-16T09:10:46.130Z,9.59
2019-01-16T09:12:10.314Z,9.61
2019-01-16T09:13:29.353Z,9.63
2019-01-16T09:14:53.535Z,9.66
2019-01-16T09:16:11.283Z,9.66
2019-01-16T09:17:43.963Z,9.69
2019-01-16T09:19:07.020Z,9.70
2019-01-16T09:20:39.961Z,9.70
2019-01-16T09:21:50.328Z,9.66
2019-01-16T09:23:14.661Z,9.66
2019-01-16T09:24:39.136Z,9.66
2019-01-16T09:26:02.028Z,9.65
2019-01-16T09:27:22.892Z,9.63
2019-01-16T09:29:02.691Z,9.60
2019-01-16T09:30:27.573Z,9.56
2019-01-16T09:32:01.380Z,9.54
2019-01-16T09:33:26.811Z,9.49
2019-01-16T09:34:51.685Z,9.42
2019-01-16T09:36:04.949Z,9.40
2019-01-16T09:37:28.161Z,9.36
2019-01-16T09:38:52.836Z,9.38
2019-01-16T09:40:16.040Z,9.43
2019-01-16T09:41:42.314Z,9.45
2019-01-16T09:43:06.706Z,9.43
2019-01-16T09:44:28.271Z,9.43
2019-01-16T09:45:44.307Z,9.42
2019-01-16T09:47:07.234Z,9.44
2019-01-16T09:48:30.505Z,9.44
2019-01-16T09:49:47.989Z,9.41
2019-01-16T09:51:23.547Z,9.38
2019-01-16T09:52:40.117Z,9.39
2019-01-16T09:53:53.859Z,9.44
2019-01-16T09:55:16.885Z,9.44
2019-01-16T09:56:47.680Z,9.43
2019-01-16T09:58:10.911Z,9.40
2019-01-16T09:59:42.651Z,9.40
2019-01-16T10:01:05.381Z,9.40
2019-01-16T10:02:32.451Z,9.37
2019-01-16T10:03:59.610Z,9.35
2019-01-16T10:05:24.685Z,9.34
2019-01-16T10:07:04.059Z,9.32
2019-01-16T10:08:46.638Z,9.31
2019-01-16T10:10:11.035Z,9.31
2019-01-16T10:11:30.315Z,9.32
2019-01-16T10:13:02.310Z,9.33
2019-01-16T10:14:25.977Z,9.34
2019-01-16T10:15:44.673Z,9.32
2019-01-16T10:17:11.945Z,9.31
2019-01-16T10:18:40.480Z,9.33
2019-01-16T10:20:14.103Z,9.32
2019-01-16T10:21:45.812Z,9.32
2019-01-16T10:23:18.767Z,9.32
2019-01-16T10:24:41.995Z,9.33
2019-01-16T10:26:03.472Z,9.34
2019-01-16T10:27:36.859Z,9.31
2019-01-16T10:29:10.163Z,9.35
2019-01-16T10:30:30.772Z,9.36
2019-01-16T10:31:58.638Z,9.35
2019-01-16T10:33:21.545Z,9.36
2019-01-16T10:34:46.028Z,9.38
2019-01-16T10:36:16.361Z,9.41
2019-01-16T10:37:37.503Z,9.43
2019-01-16T10:39:10.807Z,9.47
2019-01-16T10:40:33.591Z,9.51
2019-01-16T10:42:03.678Z,9.50
2019-01-16T10:43:23.131Z,9.48
2019-01-16T10:44:41.297Z,9.47
2019-01-16T10:46:04.114Z,9.51
2019-01-16T10:47:20.793Z,9.52
2019-01-16T10:48:49.654Z,9.55
2019-01-16T10:50:08.028Z,9.55
2019-01-16T10:51:31.559Z,9.56
2019-01-16T10:52:54.397Z,9.57
2019-01-16T10:54:10.410Z,9.57
2019-01-16T10:55:23.536Z,9.58
2019-01-16T10:56:50.637Z,9.62
2019-01-16T10:58:14.772Z,9.65
2019-01-16T10:59:45.268Z,9.67
2019-01-16T11:01:09.426Z,9.66
2019-01-16T11:02:32.396Z,9.66
2019-01-16T11:03:59.385Z,9.69
2019-01-16T11:05:22.678Z,9.70
2019-01-16T11:06:49.583Z,9.70
2019-01-16T11:08:22.646Z,9.73
2019-01-16T11:09:44.989Z,9.72
2019-01-16T11:11:07.937Z,9.74
2019-01-16T11:12:38.478Z,9.74
2019-01-16T11:14:01.545Z,9.71
2019-01-16T11:15:45.554Z,9.69
2019-01-16T11:17:05.629Z,9.68
2019-01-16T11:18:29.829Z,9.69
2019-01-16T11:19:52.934Z,9.70
2019-01-16T11:21:36.035Z,9.72
2019-01-16T11:22:58.789Z,9.72
2019-01-16T11:24:22.288Z,9.72
2019-01-16T11:25:52.675Z,9.72
2019-01-16T11:27:15.247Z,9.76
2019-01-16T11:28:39.172Z,9.78
2019-01-16T11:30:01.986Z,9.78
2019-01-16T11:31:24.765Z,9.76
2019-01-16T11:32:40.955Z,9.74
2019-01-16T11:34:03.651Z,9.73
2019-01-16T11:35:24.683Z,9.73
2019-01-16T11:36:54.513Z,9.71
2019-01-16T11:38:19.008Z,9.71
2019-01-16T11:39:31.990Z,9.69
2019-01-16T11:40:59.366Z,9.64
2019-01-16T11:42:26.439Z,9.62
2019-01-16T11:43:49.468Z,9.64
2019-01-16T11:45:14.957Z,9.66
2019-01-16T11:46:54.338Z,9.66
2019-01-16T11:48:21.546Z,9.63
2019-01-16T11:49:45.486Z,9.61
2019-01-16T11:51:09.878Z,9.59
2019-01-16T11:52:45.011Z,9.59
2019-01-16T11:54:08.080Z,9.60
2019-01-16T11:55:41.207Z,9.60
2019-01-16T11:56:56.916Z,9.59
2019-01-16T11:58:22.838Z,9.58
2019-01-16T11:59:46.979Z,9.57
2019-01-16T12:01:23.629Z,9.56
2019-01-16T12:02:39.735Z,9.55
2019-01-16T12:04:03.826Z,9.53
2019-01-16T12:05:32.660Z,9.51
2019-01-16T12:06:49.407Z,9.49
2019-01-16T12:08:23.078Z,9.49
2019-01-16T12:09:52.057Z,9.47
2019-01-16T12:11:15.226Z,9.47
2019-01-16T12:12:40.314Z,9.47
2019-01-16T12:14:19.853Z,9.48
2019-01-16T12:15:44.032Z,9.49
2019-01-16T12:17:11.270Z,9.47
2019-01-16T12:18:27.785Z,9.41
2019-01-16T12:19:52.177Z,9.43
2019-01-16T12:21:06.008Z,9.45
2019-01-16T12:22:36.735Z,9.44
2019-01-16T12:23:59.962Z,9.42
2019-01-16T12:25:16.654Z,9.43
2019-01-16T12:26:39.393Z,9.46
2019-01-16T12:28:06.224Z,9.45
2019-01-16T12:29:27.239Z,9.43
2019-01-16T12:30:50.542Z,9.42
2019-01-16T12:32:04.930Z,9.41
2019-01-16T12:33:31.155Z,9.40
2019-01-16T12:35:07.522Z,9.39
2019-01-16T12:36:35.350Z,9.39
2019-01-16T12:37:53.851Z,9.38
2019-01-16T12:39:16.992Z,9.40
2019-01-16T12:40:35.050Z,9.40
2019-01-16T12:42:05.598Z,9.40
2019-01-16T12:43:22.369Z,9.40
2019-01-16T12:44:45.733Z,9.42
2019-01-16T12:46:20.836Z,9.42
2019-01-16T12:47:45.006Z,9.41
2019-01-16T12:49:15.393Z,9.40
2019-01-16T12:50:39.755Z,9.40
2019-01-16T12:52:07.869Z,9.43
2019-01-16T12:53:38.441Z,9.42
2019-01-16T12:55:21.216Z,9.44
2019-01-16T12:56:36.436Z,9.45
2019-01-16T12:58:03.454Z,9.43
2019-01-16T12:59:32.902Z,9.39
2019-01-16T13:00:48.981Z,9.40
2019-01-16T13:02:01.918Z,9.41
2019-01-16T13:03:26.752Z,9.44
2019-01-16T13:04:43.643Z,9.45
2019-01-16T13:06:13.492Z,9.48
2019-01-16T13:07:32.342Z,9.50
2019-01-16T13:09:03.474Z,9.53
2019-01-16T13:10:58.391Z,9.53
2019-01-16T13:12:40.806Z,9.53
2019-01-16T13:13:57.206Z,9.53
2019-01-16T13:15:19.805Z,9.51
2019-01-16T13:16:54.158Z,9.49
2019-01-16T13:18:24.754Z,9.48
2019-01-16T13:19:47.766Z,9.46
2019-01-16T13:21:20.634Z,9.48
2019-01-16T13:22:46.053Z,9.51
2019-01-16T13:23:57.336Z,9.53
2019-01-16T13:25:21.696Z,9.54
2019-01-16T13:27:00.837Z,9.56
2019-01-16T13:28:27.888Z,9.60
2019-01-16T13:29:54.526Z,9.61
2019-01-16T13:31:17.590Z,9.62
2019-01-16T13:32:56.829Z,9.62
2019-01-16T13:34:30.373Z,9.59
2019-01-16T13:35:52.464Z,9.57
2019-01-16T13:37:26.078Z,9.54
2019-01-16T13:38:53.276Z,9.55
2019-01-16T13:40:18.869Z,9.59
2019-01-16T13:41:52.433Z,9.61
2019-01-16T13:43:31.711Z,9.62
2019-01-16T13:44:51.678Z,9.62
2019-01-16T13:46:18.750Z,9.63
2019-01-16T13:47:42.530Z,9.65
2019-01-16T13:49:05.244Z,9.65
2019-01-16T13:50:36.168Z,9.63
2019-01-16T13:52:15.733Z,9.63
2019-01-16T13:53:37.129Z,9.63
2019-01-16T13:54:51.320Z,9.62
2019-01-16T13:56:30.725Z,9.59
2019-01-16T13:57:48.007Z,9.57
2019-01-16T13:59:15.457Z,9.53
2019-01-16T14:00:38.510Z,9.52
2019-01-16T14:01:58.635Z,9.53
2019-01-16T14:03:14.798Z,9.54
2019-01-16T14:04:37.778Z,9.56
2019-01-16T14:06:07.858Z,9.56
2019-01-16T14:07:47.274Z,9.57
2019-01-16T14:09:15.484Z,9.57
2019-01-16T14:10:27.862Z,9.53
2019-01-16T14:11:52.221Z,9.55
2019-01-16T14:13:16.387Z,9.54
2019-01-16T14:14:35.579Z,9.55
2019-01-16T14:16:03.338Z,9.53
2019-01-16T14:17:36.592Z,9.51
2019-01-16T14:18:50.856Z,9.51
2019-01-16T14:20:10.839Z,9.54
2019-01-16T14:21:44.198Z,9.53
2019-01-16T14:23:06.019Z,9.53
2019-01-16T14:24:28.993Z,9.57
2019-01-16T14:26:02.822Z,9.59
2019-01-16T14:28:58.256Z,9.60
2019-01-16T14:30:10.922Z,9.62
2019-01-16T14:31:38.259Z,9.65
2019-01-16T14:33:02.662Z,9.63
2019-01-16T14:34:20.344Z,9.60
2019-01-16T14:35:39.012Z,9.57
2019-01-16T14:37:09.232Z,9.53
2019-01-16T14:38:52.502Z,9.52
2019-01-16T14:40:17.153Z,9.51
2019-01-16T14:41:50.419Z,9.49
2019-01-16T14:43:05.131Z,9.44
2019-01-16T14:44:34.850Z,9.42
2019-01-16T14:46:01.901Z,9.40
2019-01-16T14:47:28.472Z,9.38
2019-01-16T14:48:48.085Z,9.38
2019-01-16T14:50:19.090Z,9.37
2019-01-16T14:51:42.260Z,9.37
2019-01-16T14:53:05.079Z,9.36
2019-01-16T14:54:47.668Z,9.36
2019-01-16T14:56:11.992Z,9.36
2019-01-16T14:57:35.512Z,9.35
2019-01-16T14:58:59.907Z,9.37
2019-01-16T15:00:31.986Z,9.38
2019-01-16T15:02:01.909Z,9.40
2019-01-16T15:03:28.901Z,9.40
2019-01-16T15:04:52.038Z,9.40
2019-01-16T15:06:15.030Z,9.40
2019-01-16T15:07:38.420Z,9.40
2019-01-16T15:09:02.144Z,9.42
2019-01-16T15:10:24.159Z,9.44
2019-01-16T15:11:54.002Z,9.46
2019-01-16T15:13:11.111Z,9.44
2019-01-16T15:14:40.890Z,9.45
2019-01-16T15:15:56.697Z,9.48
2019-01-16T15:17:19.829Z,9.48
2019-01-16T15:18:56.494Z,9.50
2019-01-16T15:20:13.463Z,9.53
2019-01-16T15:21:36.201Z,9.53
2019-01-16T15:23:19.260Z,9.55
2019-01-16T15:24:42.064Z,9.54
2019-01-16T15:26:24.166Z,9.54
2019-01-16T15:27:50.943Z,9.52
2019-01-16T15:29:19.002Z,9.50
2019-01-16T15:30:41.469Z,9.49
2019-01-16T15:32:11.509Z,9.45
2019-01-16T15:33:34.546Z,9.43
2019-01-16T15:35:04.947Z,9.41
2019-01-16T15:36:32.174Z,9.40
2019-01-16T15:38:08.685Z,9.41
2019-01-16T15:39:31.414Z,9.42
2019-01-16T15:41:04.676Z,9.47
2019-01-16T15:42:35.665Z,9.48
2019-01-16T15:43:59.067Z,9.52
2019-01-16T15:45:29.653Z,9.52
2019-01-16T15:46:45.063Z,9.52
2019-01-16T15:48:08.014Z,9.52
2019-01-16T15:49:30.886Z,9.52
2019-01-16T15:51:00.886Z,9.52
2019-01-16T15:52:23.852Z,9.53
2019-01-16T15:53:46.835Z,9.54
2019-01-16T15:55:09.865Z,9.56
2019-01-16T15:56:24.262Z,9.54
2019-01-16T15:57:48.012Z,9.51
2019-01-16T15:59:12.576Z,9.51
2019-01-16T16:00:35.896Z,9.49
2019-01-16T16:01:54.380Z,9.47
2019-01-16T16:03:25.397Z,9.43
2019-01-16T16:04:57.734Z,9.41
2019-01-16T16:06:28.689Z,9.40
2019-01-16T16:07:46.814Z,9.42
2019-01-16T16:09:07.000Z,9.41
2019-01-16T16:10:30.251Z,9.40
2019-01-16T16:11:58.200Z,9.39
2019-01-16T16:13:21.459Z,9.36
2019-01-16T16:14:45.876Z,9.32
2019-01-16T16:16:09.176Z,9.32
2019-01-16T16:17:31.929Z,9.30
2019-01-16T16:18:53.633Z,9.31
2019-01-16T16:20:24.969Z,9.32
2019-01-16T16:22:07.387Z,9.32
2019-01-16T16:23:24.547Z,9.34
2019-01-16T16:24:48.942Z,9.33
2019-01-16T16:26:18.674Z,9.35
2019-01-16T16:27:37.744Z,9.33
2019-01-16T16:29:08.182Z,9.33
2019-01-16T16:30:48.756Z,9.32
2019-01-16T16:32:12.071Z,9.31
2019-01-16T16:33:32.670Z,9.30
2019-01-16T16:34:55.852Z,9.28
2019-01-16T16:36:18.293Z,9.28
2019-01-16T16:37:41.637Z,9.24
2019-01-16T16:39:04.482Z,9.24
2019-01-16T16:40:32.670Z,9.24
2019-01-16T16:41:55.546Z,9.24
2019-01-16T16:43:22.441Z,9.23
2019-01-16T16:44:45.434Z,9.20
2019-01-16T16:46:01.209Z,9.21
2019-01-16T16:47:21.117Z,9.17
2019-01-16T16:48:45.858Z,9.16
2019-01-16T16:50:04.293Z,9.15
2019-01-16T16:51:32.116Z,9.18
2019-01-16T16:52:56.521Z,9.18
2019-01-16T16:54:24.916Z,9.20
2019-01-16T16:55:49.193Z,9.22
2019-01-16T16:57:13.691Z,9.23
2019-01-16T16:58:54.469Z,9.24
2019-01-16T17:00:18.807Z,9.22
2019-01-16T17:01:58.559Z,9.21
2019-01-16T17:03:26.079Z,9.18
2019-01-16T17:04:48.941Z,9.15
2019-01-16T17:06:12.004Z,9.13
2019-01-16T17:07:38.904Z,9.10
2019-01-16T17:08:53.692Z,9.06
2019-01-16T17:10:22.311Z,9.03
2019-01-16T17:11:50.834Z,9.01
2019-01-16T17:13:13.743Z,9.01
2019-01-16T17:14:50.255Z,8.99
2019-01-16T17:16:14.535Z,8.98
2019-01-16T17:17:28.736Z,8.95
2019-01-16T17:19:05.356Z,8.94
2019-01-16T17:20:34.888Z,8.94
2019-01-16T17:22:02.095Z,8.92
2019-01-16T17:23:35.193Z,8.87
2019-01-16T17:24:50.125Z,8.85
2019-01-16T17:26:06.957Z,8.82
2019-01-16T17:27:46.930Z,8.81
2019-01-16T17:29:03.595Z,8.80
2019-01-16T17:30:24.157Z,8.79
2019-01-16T17:31:56.534Z,8.77
2019-01-16T17:33:20.825Z,8.74
2019-01-16T17:34:40.925Z,8.73
2019-01-16T17:36:03.533Z,8.73
2019-01-16T17:37:30.816Z,8.71
2019-01-16T17:38:46.211Z,8.70
2019-01-16T17:40:00.936Z,8.66
2019-01-16T17:41:24.206Z,8.63
2019-01-16T17:42:56.598Z,8.63
2019-01-16T17:44:14.347Z,8.63
2019-01-16T17:45:41.248Z,8.59
2019-01-16T17:46:59.905Z,8.57
2019-01-16T17:48:30.473Z,8.56
2019-01-16T17:50:06.597Z,8.53
2019-01-16T17:51:42.632Z,8.52
2019-01-16T17:53:01.482Z,8.51
2019-01-16T17:54:19.413Z,8.50
2019-01-16T17:55:43.442Z,8.52
2019-01-16T17:57:13.660Z,8.57
2019-01-16T17:58:37.095Z,8.61
2019-01-16T17:59:54.935Z,8.62
2019-01-16T18:01:17.978Z,8.60
2019-01-16T18:02:41.914Z,8.58
2019-01-16T18:04:01.136Z,8.55
2019-01-16T18:05:15.531Z,8.54
2019-01-16T18:06:46.996Z,8.53
2019-01-16T18:08:05.495Z,8.52
2019-01-16T18:09:30.344Z,8.50
2019-01-16T18:10:47.775Z,8.50
2019-01-16T18:12:10.834Z,8.51
2019-01-16T18:13:28.981Z,8.54
2019-01-16T18:14:53.116Z,8.58
2019-01-16T18:16:14.756Z,8.62
2019-01-16T18:17:54.889Z,8.66
2019-01-16T18:19:26.228Z,8.69
2019-01-16T18:20:59.911Z,8.74
2019-01-16T18:22:33.569Z,8.78
2019-01-16T18:23:56.547Z,8.81
2019-01-16T18:25:19.198Z,8.84
2019-01-16T18:26:42.597Z,8.83
2019-01-16T18:28:25.384Z,8.82
2019-01-16T18:29:52.570Z,8.79
2019-01-16T18:31:15.590Z,8.78
2019-01-16T18:32:55.426Z,8.77
2019-01-16T18:34:17.045Z,8.78
2019-01-16T18:35:47.276Z,8.78
2019-01-16T18:37:06.325Z,8.77
2019-01-16T18:38:27.548Z,8.75
2019-01-16T18:40:10.337Z,8.78
2019-01-16T18:41:40.231Z,8.79
2019-01-16T18:43:03.394Z,8.76
2019-01-16T18:44:37.607Z,8.77
2019-01-16T18:46:01.936Z,8.75
2019-01-16T18:47:23.568Z,8.75
2019-01-16T18:48:36.672Z,8.74
2019-01-16T18:50:16.032Z,8.73
2019-01-16T18:51:49.237Z,8.73
2019-01-16T18:53:12.706Z,8.76
2019-01-16T18:54:39.889Z,8.78
2019-01-16T18:56:16.047Z,8.78
2019-01-16T18:57:46.155Z,8.75